Portada
METAR-TAF:

METAR-TAF

Aeroports :

Moscou, Rússia

latitud: 55-30-42N, longitud: 037-30-26E, altitud: 173 m

Observació

L'informe es va fer fa 1 hora i 4 minuts, a les 01:00 UTC
Vent 12 kt del Oest
Temperatura 3°C
Humitat 87%
Pressió 1010 hPa
Visibilitat: 8000 m
Cel ennuvolat a una alçada de 2300 ft

METAR: UUMO 020100Z 27006MPS 8000 BKN023 03/01 Q1010 R25/290050 NOSIG RMK QFE742/0990

Hora: 05:04 (02:04 UTC)

Pronòstic

L'informe es va fer fa 10 minuts, a les 01:54 UTC
Pronòstic vàlid del 02 a les 02 UTC al 02 a les 09 UTC
Vent 14 kt del Oest
Visibilitat: 8000 m
Cel ennuvolat a una alçada de 1600 ft
Temporalment
l' 02 a les 02 UTC al 02 a les 06 UTC
Cel ennuvolat a una alçada de 1000 ft
neu, pluja
Evolucionant progressivament
l' 02 a les 06 UTC al 02 a les 08 UTC
Vent 14 kt del Oest/Nord-Oest

TAF: UUMO 020154Z 0202/0209 27007MPS 8000 BKN016 TEMPO 0202/0206 -SNRA BKN010 BECMG 0206/0208 29007MPS

Observacions i pronòstics meteorològics de més de 4000 aeroports (METAR i TAF).

Les estacions disponibles són els punts grocs i vermells al mapa.

Posi el ratolí al punt desitjat per veure el nom de l'estació.

Feu clic per veure les observacions i els pronòstics meteorològics.

Per canviar el mapa: feu clic els botons verds amb una creu de color negre per apropar; al botó verd amb un guió per allunyar la imatge; o en les fletxes verdes per a mapes adjacents.


METAR-TAF: